Time;durP1;ratioP1;P1;durP2;ratioP2;P2;SDS_P1;SDS_P2;PMS_P1;PMS_P2;Temp;Humidity;BMP_temperature;BMP_pressure;BME280_temperature;BME280_humidity;BME280_pressure;Samples;Min_cycle;Max_cycle;Signal;HPM_P1;HPM_P2
2023/03/19 00:01:43;;;;;;;6.10;3.25;;;10.30;72.90;;;;;;5010249;28;20048;-79
2023/03/19 00:04:09;;;;;;;4.03;3.10;;;10.20;72.80;;;;;;5027016;28;20036;-76
2023/03/19 00:06:35;;;;;;;5.28;3.63;;;10.10;72.80;;;;;;5030225;28;20036;-77
2023/03/19 00:09:01;;;;;;;6.95;3.67;;;10.10;73.00;;;;;;5012589;28;20633;-77
2023/03/19 00:11:26;;;;;;;5.28;3.17;;;10.10;73.10;;;;;;5032168;28;20048;-77
2023/03/19 00:13:52;;;;;;;9.43;3.65;;;10.00;73.10;;;;;;5010417;28;20045;-77
2023/03/19 00:16:17;;;;;;;4.43;3.35;;;10.00;73.30;;;;;;5012180;28;20710;-76
2023/03/19 00:18:43;;;;;;;5.05;3.38;;;9.90;73.20;;;;;;5014969;28;20059;-78
2023/03/19 00:21:08;;;;;;;5.18;3.30;;;9.90;73.30;;;;;;5030536;28;20223;-77
2023/03/19 00:23:35;;;;;;;5.43;3.40;;;9.80;73.40;;;;;;5033522;28;20071;-77
2023/03/19 00:26:00;;;;;;;6.00;3.78;;;9.80;73.60;;;;;;5001263;28;20048;-78
2023/03/19 00:28:26;;;;;;;6.40;3.80;;;9.70;73.80;;;;;;4999485;28;20051;-78
2023/03/19 00:30:52;;;;;;;5.75;3.00;;;9.70;73.90;;;;;;5031097;28;20080;-78
2023/03/19 00:33:18;;;;;;;5.55;3.67;;;9.70;73.90;;;;;;4998101;28;20112;-78
2023/03/19 00:35:45;;;;;;;5.53;3.30;;;9.70;74.00;;;;;;5029730;28;20045;-77
2023/03/19 00:38:10;;;;;;;5.55;4.05;;;9.70;74.10;;;;;;5015491;28;22290;-78
2023/03/19 00:40:36;;;;;;;5.65;3.50;;;9.60;74.20;;;;;;5015421;28;20419;-76
2023/03/19 00:43:01;;;;;;;8.18;3.20;;;9.60;74.20;;;;;;5010545;28;20044;-76
2023/03/19 00:45:29;;;;;;;7.20;3.40;;;9.60;74.20;;;;;;4999408;28;20455;-79
2023/03/19 00:47:55;;;;;;;6.75;3.40;;;9.60;74.20;;;;;;5014981;28;20037;-78
2023/03/19 00:50:20;;;;;;;7.75;3.25;;;9.50;74.20;;;;;;5024453;28;20525;-76
2023/03/19 00:52:46;;;;;;;7.93;3.35;;;9.50;74.30;;;;;;5027750;28;20553;-77
2023/03/19 00:55:11;;;;;;;5.88;3.58;;;9.50;74.40;;;;;;5015360;28;20040;-78
2023/03/19 00:57:37;;;;;;;5.82;3.50;;;9.40;74.40;;;;;;5041939;28;20041;-79
2023/03/19 01:00:03;;;;;;;5.75;3.17;;;9.40;74.40;;;;;;5030495;28;20040;-78
2023/03/19 01:02:29;;;;;;;6.43;3.50;;;9.30;74.40;;;;;;5016077;28;20155;-77
2023/03/19 01:04:55;;;;;;;6.78;3.63;;;9.30;74.60;;;;;;5008024;28;20099;-77
2023/03/19 01:07:20;;;;;;;5.00;3.53;;;9.30;74.80;;;;;;5011946;28;20811;-78
2023/03/19 01:09:46;;;;;;;5.93;2.83;;;9.20;74.70;;;;;;5043193;28;20049;-79
2023/03/19 01:12:12;;;;;;;6.25;2.85;;;9.20;74.70;;;;;;5031731;28;20033;-77
2023/03/19 01:14:37;;;;;;;5.10;3.35;;;9.20;74.70;;;;;;5018044;28;20034;-78
2023/03/19 01:17:03;;;;;;;6.18;3.15;;;9.10;74.80;;;;;;5032362;28;20431;-78
2023/03/19 01:19:28;;;;;;;4.22;2.92;;;9.10;75.00;;;;;;5028751;28;20065;-76
2023/03/19 01:21:54;;;;;;;6.25;3.35;;;9.00;75.00;;;;;;5017621;28;20041;-78
2023/03/19 01:24:19;;;;;;;6.80;3.08;;;9.00;75.20;;;;;;5023436;28;20540;-78
2023/03/19 01:26:45;;;;;;;5.57;3.72;;;9.00;75.30;;;;;;5001579;28;20096;-77
2023/03/19 01:29:10;;;;;;;4.45;3.20;;;9.00;75.40;;;;;;5025783;28;20663;-78
2023/03/19 01:31:36;;;;;;;6.30;3.60;;;9.00;75.50;;;;;;5022814;28;20219;-77
2023/03/19 01:34:02;;;;;;;8.57;4.18;;;8.90;75.50;;;;;;5011518;28;20112;-78
2023/03/19 01:36:28;;;;;;;6.68;3.95;;;8.90;75.60;;;;;;5026044;28;20139;-77
2023/03/19 01:38:54;;;;;;;6.38;3.97;;;8.90;75.70;;;;;;5027854;28;20451;-78
2023/03/19 01:41:19;;;;;;;8.02;4.03;;;8.90;75.90;;;;;;5021720;28;20770;-78
2023/03/19 01:43:45;;;;;;;5.95;3.55;;;8.90;76.10;;;;;;5014352;28;20127;-78
2023/03/19 01:46:21;;;;;;;5.47;3.17;;;8.90;76.10;;;;;;5047308;28;20049;-75
2023/03/19 01:48:54;;;;;;;6.60;2.67;;;8.90;76.10;;;;;;5035534;28;20162;-79
2023/03/19 01:51:22;;;;;;;6.03;3.15;;;8.90;76.20;;;;;;5017320;28;20124;-75
2023/03/19 01:53:50;;;;;;;6.80;2.97;;;8.90;76.10;;;;;;5009921;28;20633;-78
2023/03/19 01:56:20;;;;;;;6.28;3.45;;;8.90;76.20;;;;;;5005423;28;20971;-78
2023/03/19 01:58:46;;;;;;;7.97;2.85;;;8.90;76.30;;;;;;5028263;28;20121;-78
2023/03/19 02:01:12;;;;;;;4.97;2.95;;;8.90;76.40;;;;;;4994727;28;20037;-76
2023/03/19 02:03:38;;;;;;;5.75;2.97;;;8.90;76.40;;;;;;5010930;28;20071;-77
2023/03/19 02:06:04;;;;;;;6.47;3.35;;;8.90;76.50;;;;;;5007404;28;20090;-76
2023/03/19 02:08:29;;;;;;;4.05;2.83;;;8.90;76.50;;;;;;5028902;28;20226;-77
2023/03/19 02:10:55;;;;;;;5.53;3.05;;;8.80;76.50;;;;;;4973681;28;20052;-78
2023/03/19 02:13:22;;;;;;;5.03;3.00;;;8.80;76.50;;;;;;5000092;28;20049;-78
2023/03/19 02:15:48;;;;;;;3.70;2.85;;;8.80;76.60;;;;;;5010163;28;20048;-77
2023/03/19 02:18:14;;;;;;;5.97;3.40;;;8.80;76.70;;;;;;5032072;28;20037;-77
2023/03/19 02:20:42;;;;;;;6.32;3.35;;;8.80;76.80;;;;;;5028718;28;20057;-78
2023/03/19 02:23:30;;;;;;;4.55;3.00;;;8.80;76.90;;;;;;5025589;28;20064;-77
2023/03/19 02:26:07;;;;;;;2.85;2.33;;;8.80;77.40;;;;;;5029730;28;20036;-77
2023/03/19 02:28:33;;;;;;;8.50;2.83;;;8.80;77.00;;;;;;5036167;28;20044;-78
2023/03/19 02:30:59;;;;;;;4.40;2.63;;;8.80;77.00;;;;;;5009673;28;20064;-76
2023/03/19 02:33:25;;;;;;;3.63;2.90;;;8.80;77.10;;;;;;5016582;28;20116;-74
2023/03/19 02:35:51;;;;;;;5.55;2.80;;;8.80;77.10;;;;;;5032703;28;20049;-76
2023/03/19 02:38:17;;;;;;;7.50;3.17;;;8.80;77.20;;;;;;5011454;28;20123;-78
2023/03/19 02:40:54;;;;;;;2.67;2.25;;;8.80;77.20;;;;;;5010505;28;20033;-78
2023/03/19 02:43:20;;;;;;;5.10;2.88;;;8.80;77.30;;;;;;5023189;28;20095;-78
2023/03/19 02:45:46;;;;;;;5.53;3.35;;;8.80;77.30;;;;;;4986003;28;20037;-77
2023/03/19 02:48:11;;;;;;;3.13;2.55;;;8.80;77.40;;;;;;4998054;28;20408;-77
2023/03/19 02:50:37;;;;;;;5.70;3.05;;;8.80;77.40;;;;;;5041823;28;20660;-77
2023/03/19 02:53:02;;;;;;;3.17;2.53;;;8.80;77.40;;;;;;5037285;28;20059;-79
2023/03/19 02:55:28;;;;;;;6.72;2.90;;;8.80;77.50;;;;;;5015610;28;20125;-76
2023/03/19 02:57:54;;;;;;;5.97;2.75;;;8.80;77.60;;;;;;5017794;28;21089;-79
2023/03/19 03:00:19;;;;;;;3.35;2.70;;;8.80;77.60;;;;;;5038597;28;20028;-78
2023/03/19 03:02:45;;;;;;;4.97;3.03;;;8.80;77.70;;;;;;5021974;28;20044;-79
2023/03/19 03:05:11;;;;;;;4.55;3.00;;;8.80;77.70;;;;;;5017323;28;20048;-78
2023/03/19 03:07:37;;;;;;;3.65;2.58;;;8.70;77.70;;;;;;5031778;28;20638;-78
2023/03/19 03:10:02;;;;;;;8.48;2.90;;;8.70;77.80;;;;;;5034360;28;20053;-78
2023/03/19 03:12:28;;;;;;;6.05;3.08;;;8.70;77.90;;;;;;5013239;28;20507;-79
2023/03/19 03:14:53;;;;;;;6.47;3.83;;;8.70;78.00;;;;;;5047175;28;20229;-78
2023/03/19 03:17:19;;;;;;;7.68;3.20;;;8.70;78.10;;;;;;5031979;28;20071;-78
2023/03/19 03:19:44;;;;;;;4.60;3.83;;;8.70;78.10;;;;;;5035894;28;20140;-78
2023/03/19 03:22:10;;;;;;;5.85;4.05;;;8.70;78.20;;;;;;5034761;28;20045;-77
2023/03/19 03:24:38;;;;;;;6.38;4.60;;;8.70;78.30;;;;;;5029379;28;20136;-76
2023/03/19 03:27:03;;;;;;;5.10;3.65;;;8.70;78.30;;;;;;5017090;28;20044;-76
2023/03/19 03:29:29;;;;;;;7.25;4.38;;;8.70;78.40;;;;;;5017047;28;20530;-79
2023/03/19 03:31:54;;;;;;;5.22;3.35;;;8.70;78.50;;;;;;5012725;28;20619;-78
2023/03/19 03:34:20;;;;;;;5.07;3.55;;;8.60;78.50;;;;;;4996969;28;20037;-79
2023/03/19 03:36:45;;;;;;;4.57;3.47;;;8.60;79.40;;;;;;4998685;28;20073;-78
2023/03/19 03:39:11;;;;;;;9.98;3.30;;;8.60;78.70;;;;;;5033834;28;20167;-78
2023/03/19 03:41:37;;;;;;;6.43;3.45;;;8.60;78.80;;;;;;5032830;28;20045;-78
2023/03/19 03:44:03;;;;;;;9.18;3.70;;;8.60;78.80;;;;;;5034446;28;20044;-78
2023/03/19 03:46:28;;;;;;;5.13;3.33;;;8.60;79.00;;;;;;5019148;28;20099;-78
2023/03/19 03:48:54;;;;;;;10.38;4.22;;;8.60;79.10;;;;;;5020576;28;20049;-77
2023/03/19 03:51:20;;;;;;;7.47;3.53;;;8.60;79.20;;;;;;4985127;28;20045;-78
2023/03/19 03:53:46;;;;;;;5.68;3.15;;;8.50;79.20;;;;;;5019832;28;20087;-79
2023/03/19 03:56:12;;;;;;;8.65;3.80;;;8.50;79.20;;;;;;5001498;28;20116;-79
2023/03/19 03:58:38;;;;;;;6.88;4.13;;;8.50;79.20;;;;;;4992224;28;20018;-78
2023/03/19 04:01:03;;;;;;;4.75;3.38;;;8.50;79.40;;;;;;5021764;28;20029;-78
2023/03/19 04:03:29;;;;;;;5.85;3.15;;;8.50;79.40;;;;;;5045247;28;20055;-78
2023/03/19 04:05:54;;;;;;;6.53;3.33;;;8.50;79.50;;;;;;5035014;28;20032;-78
2023/03/19 04:08:20;;;;;;;4.53;3.67;;;8.50;79.60;;;;;;5011263;28;20033;-79
2023/03/19 04:10:45;;;;;;;5.63;3.25;;;8.50;79.60;;;;;;4996371;28;20837;-77
2023/03/19 04:13:11;;;;;;;5.50;3.40;;;8.50;79.60;;;;;;5031021;28;20040;-78
2023/03/19 04:15:37;;;;;;;8.20;3.35;;;8.50;79.70;;;;;;5030987;28;20063;-78
2023/03/19 04:18:02;;;;;;;5.00;2.97;;;8.50;79.80;;;;;;5032892;28;20123;-78
2023/03/19 04:20:28;;;;;;;4.53;3.55;;;8.50;79.80;;;;;;5030341;28;20033;-79
2023/03/19 04:22:54;;;;;;;5.30;2.85;;;8.50;79.90;;;;;;4987560;28;20037;-79
2023/03/19 04:25:20;;;;;;;5.05;2.80;;;8.50;79.90;;;;;;4999920;28;20227;-78
2023/03/19 04:27:45;;;;;;;9.48;3.70;;;8.50;79.90;;;;;;5029818;28;20038;-77
2023/03/19 04:30:12;;;;;;;5.75;4.55;;;8.50;79.90;;;;;;5027517;28;20048;-78
2023/03/19 04:32:37;;;;;;;8.32;5.13;;;8.50;80.00;;;;;;4995821;28;20543;-78
2023/03/19 04:35:03;;;;;;;5.95;4.35;;;8.50;80.10;;;;;;5001268;28;20128;-78
2023/03/19 04:37:29;;;;;;;8.90;4.90;;;8.50;80.10;;;;;;5027627;28;20056;-76
2023/03/19 04:39:54;;;;;;;7.22;4.75;;;8.50;80.10;;;;;;5006691;28;20037;-78
2023/03/19 04:42:20;;;;;;;7.47;4.70;;;8.50;80.30;;;;;;5000903;28;22674;-78
2023/03/19 04:44:46;;;;;;;8.15;4.05;;;8.50;80.20;;;;;;5019678;28;20033;-78
2023/03/19 04:47:11;;;;;;;6.85;4.03;;;8.50;80.20;;;;;;5023608;28;20025;-78
2023/03/19 04:49:37;;;;;;;8.95;4.50;;;8.50;80.50;;;;;;5032650;28;20716;-78
2023/03/19 04:52:03;;;;;;;5.30;3.63;;;8.50;80.30;;;;;;5036493;28;20044;-78
2023/03/19 04:54:28;;;;;;;4.85;4.20;;;8.50;80.30;;;;;;5002334;28;20480;-79
2023/03/19 04:56:54;;;;;;;8.77;4.95;;;8.40;80.30;;;;;;4997988;28;20087;-78
2023/03/19 04:59:21;;;;;;;8.10;4.50;;;8.40;80.40;;;;;;5017106;28;20587;-78
2023/03/19 05:01:46;;;;;;;5.97;3.83;;;8.40;80.40;;;;;;5024237;28;20066;-77
2023/03/19 05:04:12;;;;;;;5.50;3.60;;;8.40;80.40;;;;;;5017476;28;20194;-78
2023/03/19 05:06:37;;;;;;;5.60;4.00;;;8.40;80.50;;;;;;5032362;28;20052;-79
2023/03/19 05:09:03;;;;;;;8.05;4.88;;;8.40;80.50;;;;;;5033896;28;20155;-78
2023/03/19 05:11:29;;;;;;;8.45;4.60;;;8.40;80.60;;;;;;5016361;28;20048;-79
2023/03/19 05:13:54;;;;;;;6.18;4.20;;;8.30;80.50;;;;;;5013719;28;20037;-79
2023/03/19 05:16:20;;;;;;;6.35;4.07;;;8.40;80.60;;;;;;5030544;28;20140;-79
2023/03/19 05:18:46;;;;;;;7.18;4.07;;;8.30;80.60;;;;;;5013491;28;20120;-78
2023/03/19 05:21:11;;;;;;;4.07;3.20;;;8.30;80.80;;;;;;5016211;28;20110;-79
2023/03/19 05:23:38;;;;;;;4.97;3.42;;;8.30;80.70;;;;;;4999559;28;20033;-79
2023/03/19 05:26:03;;;;;;;6.97;3.20;;;8.30;80.90;;;;;;5030122;28;20029;-78
2023/03/19 05:28:29;;;;;;;4.28;3.15;;;8.30;80.90;;;;;;5015905;28;20068;-78
2023/03/19 05:30:55;;;;;;;6.78;3.38;;;8.30;81.00;;;;;;5037259;28;20037;-78
2023/03/19 05:33:21;;;;;;;5.85;3.38;;;8.30;80.90;;;;;;5030888;28;20040;-78
2023/03/19 05:35:47;;;;;;;5.68;3.63;;;8.30;80.90;;;;;;5014959;28;20036;-78
2023/03/19 05:38:12;;;;;;;6.10;3.83;;;8.30;80.90;;;;;;5021130;28;20047;-78
2023/03/19 05:40:40;;;;;;;6.13;4.60;;;8.40;80.90;;;;;;5000581;28;20041;-79
2023/03/19 05:43:06;;;;;;;6.97;4.00;;;8.40;81.00;;;;;;5038192;28;20562;-79
2023/03/19 05:45:32;;;;;;;5.43;3.83;;;8.40;81.00;;;;;;5035257;28;20044;-78
2023/03/19 05:47:57;;;;;;;5.68;3.97;;;8.40;80.90;;;;;;5052887;28;20478;-78
2023/03/19 05:50:23;;;;;;;5.38;3.75;;;8.40;81.00;;;;;;5052450;28;20067;-78
2023/03/19 05:52:49;;;;;;;6.80;3.97;;;8.40;81.00;;;;;;5007704;28;20123;-78
2023/03/19 05:55:15;;;;;;;5.22;3.55;;;8.40;81.00;;;;;;5022263;28;20053;-78
2023/03/19 05:57:41;;;;;;;8.20;4.07;;;8.40;81.00;;;;;;5022924;28;20036;-79
2023/03/19 06:00:07;;;;;;;5.25;4.25;;;8.40;81.00;;;;;;5037497;28;20543;-78
2023/03/19 06:02:34;;;;;;;7.20;4.35;;;8.40;81.00;;;;;;5015631;28;20058;-78
2023/03/19 06:04:59;;;;;;;11.20;4.82;;;8.40;81.10;;;;;;5004802;28;20033;-78
2023/03/19 06:07:25;;;;;;;6.93;4.22;;;8.40;81.10;;;;;;5017854;28;20041;-78
2023/03/19 06:09:50;;;;;;;7.53;5.07;;;8.40;81.20;;;;;;5015007;28;20499;-79
2023/03/19 06:12:16;;;;;;;8.80;5.57;;;8.40;81.30;;;;;;5022377;28;20209;-78
2023/03/19 06:14:41;;;;;;;19.83;12.95;;;8.40;81.30;;;;;;5019570;28;20460;-79
2023/03/19 06:17:08;;;;;;;16.50;10.98;;;8.50;82.30;;;;;;5053496;28;20040;-78
2023/03/19 06:19:33;;;;;;;16.05;11.18;;;8.50;81.40;;;;;;5037484;28;20053;-79
2023/03/19 06:21:59;;;;;;;10.05;6.45;;;8.50;81.50;;;;;;5003336;28;20507;-79
2023/03/19 06:24:24;;;;;;;15.70;9.00;;;8.50;81.50;;;;;;5052269;28;20032;-78
2023/03/19 06:26:50;;;;;;;17.08;10.93;;;8.50;81.50;;;;;;5034456;28;20041;-77
2023/03/19 06:29:15;;;;;;;14.82;9.10;;;8.50;81.50;;;;;;5040685;28;20143;-78
2023/03/19 06:31:41;;;;;;;9.80;6.55;;;8.40;81.50;;;;;;5006422;28;20043;-78
2023/03/19 06:34:07;;;;;;;8.55;5.78;;;8.40;81.60;;;;;;4997836;28;20029;-77
2023/03/19 06:36:32;;;;;;;10.93;6.13;;;8.50;81.70;;;;;;4995096;28;20491;-77
2023/03/19 06:38:58;;;;;;;10.63;5.78;;;8.50;81.70;;;;;;5015328;28;20790;-78
2023/03/19 06:41:24;;;;;;;10.65;6.65;;;8.50;81.80;;;;;;5002749;28;20025;-79
2023/03/19 06:43:49;;;;;;;10.32;6.03;;;8.50;81.80;;;;;;5036767;28;20059;-79
2023/03/19 06:46:15;;;;;;;9.13;5.97;;;8.50;81.90;;;;;;5036925;28;20102;-78
2023/03/19 06:48:40;;;;;;;7.70;5.65;;;8.50;82.00;;;;;;5038584;28;20074;-79
2023/03/19 06:51:06;;;;;;;8.07;5.75;;;8.50;82.00;;;;;;5052795;28;20190;-79
2023/03/19 06:53:31;;;;;;;10.55;5.40;;;8.50;82.10;;;;;;5033755;28;20048;-78
2023/03/19 06:55:57;;;;;;;8.43;5.55;;;8.50;82.20;;;;;;5020739;28;20036;-79
2023/03/19 06:58:22;;;;;;;8.02;5.25;;;8.50;82.30;;;;;;5014440;28;20037;-78
2023/03/19 07:00:48;;;;;;;9.00;5.82;;;8.60;82.40;;;;;;4985803;28;20048;-79
2023/03/19 07:03:14;;;;;;;8.35;4.80;;;8.60;82.40;;;;;;5029775;28;20437;-79
2023/03/19 07:05:39;;;;;;;6.28;4.68;;;8.60;82.40;;;;;;5009604;28;20040;-79
2023/03/19 07:08:10;;;;;;;7.63;4.53;;;8.60;82.40;;;;;;5011822;28;20029;-78
2023/03/19 07:10:39;;;;;;;13.57;6.47;;;8.60;82.40;;;;;;5001883;28;20044;-79
2023/03/19 07:13:05;;;;;;;8.50;5.20;;;8.70;82.40;;;;;;5018328;28;20068;-79
2023/03/19 07:15:30;;;;;;;8.45;5.22;;;8.70;82.40;;;;;;5010904;28;20087;-78
2023/03/19 07:17:56;;;;;;;6.32;4.32;;;8.70;82.40;;;;;;4999137;28;20657;-79
2023/03/19 07:20:21;;;;;;;7.97;4.90;;;8.80;82.40;;;;;;4998025;28;20033;-78
2023/03/19 07:22:49;;;;;;;5.38;4.22;;;8.80;82.40;;;;;;4992657;28;20124;-79
2023/03/19 07:25:15;;;;;;;6.45;4.80;;;8.80;82.30;;;;;;5007173;28;20040;-79
2023/03/19 07:27:41;;;;;;;6.97;4.30;;;8.90;82.40;;;;;;5006551;28;20041;-78
2023/03/19 07:30:07;;;;;;;14.85;9.32;;;8.90;82.50;;;;;;5031609;28;20174;-79
2023/03/19 07:32:32;;;;;;;10.93;7.78;;;8.90;82.90;;;;;;5034682;28;20040;-78
2023/03/19 07:34:58;;;;;;;11.07;8.10;;;8.90;82.60;;;;;;5033726;28;20048;-79
2023/03/19 07:37:23;;;;;;;12.48;7.07;;;9.00;82.80;;;;;;5030066;28;20041;-79
2023/03/19 07:39:49;;;;;;;8.90;6.25;;;9.00;82.80;;;;;;5027433;28;20059;-78
2023/03/19 07:42:15;;;;;;;8.95;5.38;;;9.00;82.90;;;;;;5044604;28;20037;-76
2023/03/19 07:44:40;;;;;;;8.57;6.43;;;9.10;82.90;;;;;;5033230;28;20731;-77
2023/03/19 07:47:06;;;;;;;10.25;6.03;;;9.10;83.00;;;;;;5030282;28;20033;-78
2023/03/19 07:49:31;;;;;;;10.57;5.88;;;9.10;83.20;;;;;;5030421;28;20041;-78
2023/03/19 07:51:57;;;;;;;7.43;5.80;;;9.10;83.10;;;;;;5006842;28;20044;-79
2023/03/19 07:54:23;;;;;;;7.07;5.00;;;9.20;83.20;;;;;;5029037;28;20098;-78
2023/03/19 07:56:48;;;;;;;6.60;5.05;;;9.20;83.20;;;;;;5032710;28;20099;-78
2023/03/19 07:59:14;;;;;;;7.63;5.35;;;9.20;83.10;;;;;;5029916;28;20036;-78
2023/03/19 08:01:39;;;;;;;8.35;5.75;;;9.20;83.20;;;;;;5030517;28;20043;-78
2023/03/19 08:04:05;;;;;;;7.80;6.13;;;9.30;83.30;;;;;;5021403;28;20152;-78
2023/03/19 08:06:30;;;;;;;7.95;5.72;;;9.30;83.30;;;;;;5006541;28;20119;-77
2023/03/19 08:08:56;;;;;;;9.25;5.13;;;9.30;83.50;;;;;;5003602;28;20042;-79
2023/03/19 08:11:21;;;;;;;8.10;5.18;;;9.40;84.40;;;;;;5005788;28;20033;-78
2023/03/19 08:13:47;;;;;;;7.45;5.18;;;9.40;83.40;;;;;;4996735;28;20049;-79
2023/03/19 08:16:12;;;;;;;19.48;10.48;;;9.50;83.30;;;;;;5005508;28;20061;-77
2023/03/19 08:18:38;;;;;;;13.20;8.07;;;9.60;83.40;;;;;;4981472;28;20080;-78
2023/03/19 08:21:04;;;;;;;23.58;7.05;;;9.60;83.30;;;;;;4988984;28;20041;-78
2023/03/19 08:23:29;;;;;;;7.25;4.90;;;9.70;83.40;;;;;;5013151;28;20033;-79
2023/03/19 08:25:55;;;;;;;7.22;4.78;;;9.70;83.20;;;;;;5012013;28;20025;-78
2023/03/19 08:28:21;;;;;;;9.50;5.32;;;9.80;83.30;;;;;;5010134;28;20835;-78
2023/03/19 08:30:47;;;;;;;7.88;5.22;;;9.90;83.40;;;;;;5031382;28;20033;-79
2023/03/19 08:33:12;;;;;;;9.27;6.35;;;10.00;83.40;;;;;;5030274;28;20041;-77
2023/03/19 08:35:38;;;;;;;8.52;6.45;;;10.10;83.30;;;;;;4999962;28;20039;-79
2023/03/19 08:38:04;;;;;;;7.82;5.55;;;10.20;83.40;;;;;;4980503;28;20022;-78
2023/03/19 08:40:29;;;;;;;7.00;5.72;;;10.30;83.30;;;;;;5014911;28;20072;-77
2023/03/19 08:42:55;;;;;;;9.13;5.78;;;10.40;83.30;;;;;;5014931;28;20071;-79
2023/03/19 08:45:21;;;;;;;8.00;4.80;;;10.50;83.30;;;;;;4996673;28;20790;-79
2023/03/19 08:47:46;;;;;;;8.23;4.65;;;10.60;83.10;;;;;;5012919;28;20570;-75
2023/03/19 08:50:12;;;;;;;6.95;4.53;;;10.70;82.90;;;;;;5015181;28;20028;-78
2023/03/19 08:52:38;;;;;;;6.90;4.53;;;10.80;83.10;;;;;;5045976;28;20068;-79
2023/03/19 08:55:04;;;;;;;6.88;4.38;;;10.90;83.10;;;;;;5013556;28;20029;-79
2023/03/19 08:57:30;;;;;;;6.82;3.88;;;10.90;83.10;;;;;;5014450;28;20045;-78
2023/03/19 08:59:56;;;;;;;7.88;4.50;;;11.00;83.00;;;;;;4997106;28;20037;-78
2023/03/19 09:02:22;;;;;;;5.63;4.15;;;11.10;82.90;;;;;;5014639;28;20033;-79
2023/03/19 09:04:47;;;;;;;5.32;3.95;;;11.20;82.80;;;;;;5016302;28;20165;-77
2023/03/19 09:07:14;;;;;;;7.07;3.60;;;11.30;82.60;;;;;;5030820;28;20040;-77
2023/03/19 09:09:40;;;;;;;6.03;4.10;;;11.40;82.70;;;;;;5020705;28;20508;-78
2023/03/19 09:12:06;;;;;;;5.88;4.35;;;11.50;82.70;;;;;;4991432;28;20554;-78
2023/03/19 09:14:33;;;;;;;6.20;4.70;;;11.60;82.60;;;;;;5020415;28;20036;-78
2023/03/19 09:16:58;;;;;;;5.22;3.85;;;11.70;82.50;;;;;;4978632;28;20487;-78
2023/03/19 09:19:24;;;;;;;7.00;4.50;;;11.90;82.60;;;;;;5014339;28;20059;-79
2023/03/19 09:21:50;;;;;;;8.15;4.65;;;11.90;82.30;;;;;;5034436;28;20425;-79
2023/03/19 09:24:16;;;;;;;7.05;3.85;;;12.10;82.30;;;;;;5021299;28;20121;-79
2023/03/19 09:26:41;;;;;;;8.02;4.18;;;12.20;82.30;;;;;;5025413;28;20062;-77
2023/03/19 09:29:07;;;;;;;7.13;4.07;;;12.30;82.20;;;;;;5012592;28;20041;-76
2023/03/19 09:31:33;;;;;;;4.40;3.38;;;12.40;82.00;;;;;;5045044;28;20102;-77
2023/03/19 09:33:59;;;;;;;9.10;3.50;;;12.60;81.90;;;;;;5030231;28;20034;-77
2023/03/19 09:36:25;;;;;;;6.80;3.13;;;12.70;81.50;;;;;;5008246;28;20096;-78
2023/03/19 09:38:51;;;;;;;6.03;3.38;;;12.80;81.00;;;;;;5007121;28;20766;-78
2023/03/19 09:41:35;;;;;;;5.57;2.33;;;12.90;80.50;;;;;;5013045;28;20037;-78
2023/03/19 09:44:03;;;;;;;4.30;2.80;;;13.10;80.00;;;;;;5032852;28;20534;-79
2023/03/19 09:46:37;;;;;;;6.25;2.30;;;13.20;79.60;;;;;;5032945;28;20132;-80
2023/03/19 09:49:25;;;;;;;4.13;1.95;;;13.40;79.30;;;;;;5020607;28;20037;-79
2023/03/19 09:52:09;;;;;;;5.68;2.53;;;13.50;78.50;;;;;;5008959;28;20032;-78
2023/03/19 09:54:38;;;;;;;5.18;2.35;;;13.60;78.30;;;;;;5016887;28;20041;-77
2023/03/19 09:57:04;;;;;;;5.90;2.40;;;13.80;78.10;;;;;;4992948;28;20037;-78
2023/03/19 09:59:30;;;;;;;4.80;1.98;;;14.00;77.80;;;;;;5006897;28;20036;-78
2023/03/19 10:02:19;;;;;;;4.68;1.60;;;14.20;77.40;;;;;;5000456;28;20052;-78
2023/03/19 10:05:06;;;;;;;2.25;1.90;;;14.40;76.90;;;;;;5017439;28;20051;-79
2023/03/19 10:07:59;;;;;;;3.72;1.83;;;14.60;75.90;;;;;;5025480;28;20044;-79
2023/03/19 10:10:47;;;;;;;4.50;2.17;;;14.70;75.00;;;;;;5019080;28;21592;-78
2023/03/19 10:13:15;;;;;;;5.82;2.28;;;14.80;74.90;;;;;;5014514;28;20045;-78
2023/03/19 10:15:42;;;;;;;2.75;1.92;;;14.90;75.10;;;;;;5028937;28;20046;-78
2023/03/19 10:18:18;;;;;;;6.57;1.60;;;15.00;74.70;;;;;;5025560;28;20029;-78
2023/03/19 10:20:58;;;;;;;3.83;2.20;;;15.20;74.20;;;;;;5021449;28;20098;-79
2023/03/19 10:23:35;;;;;;;2.42;1.98;;;15.30;73.40;;;;;;5014796;28;20562;-77
2023/03/19 10:26:02;;;;;;;2.40;1.80;;;15.50;73.10;;;;;;5027747;28;20132;-79
2023/03/19 10:28:28;;;;;;;1.90;1.67;;;15.50;73.20;;;;;;5007354;28;20503;-80
2023/03/19 10:31:00;;;;;;;4.30;1.80;;;15.60;72.90;;;;;;5020605;28;20818;-78
2023/03/19 10:33:33;;;;;;;2.38;1.50;;;15.70;72.50;;;;;;4996193;28;20042;-79
2023/03/19 10:36:04;;;;;;;3.63;1.52;;;15.80;71.90;;;;;;5003990;28;20132;-79
2023/03/19 10:38:32;;;;;;;2.55;1.60;;;16.00;71.30;;;;;;5001110;28;20136;-79
2023/03/19 10:41:25;;;;;;;2.70;1.38;;;16.10;71.20;;;;;;4994304;28;20029;-78
2023/03/19 10:43:53;;;;;;;2.75;1.27;;;16.20;70.10;;;;;;5019786;28;20496;-79
2023/03/19 10:46:20;;;;;;;2.63;1.45;;;16.30;70.40;;;;;;5029317;28;20038;-79
2023/03/19 10:48:46;;;;;;;4.45;1.48;;;16.40;70.10;;;;;;5008473;28;20094;-80
2023/03/19 10:51:15;;;;;;;2.67;1.50;;;16.50;70.00;;;;;;5019268;28;20123;-77
2023/03/19 10:53:41;;;;;;;4.20;1.20;;;16.70;69.60;;;;;;5011985;28;20136;-79
2023/03/19 10:56:06;;;;;;;3.55;1.08;;;16.90;69.20;;;;;;4995480;28;20025;-77
2023/03/19 10:58:34;;;;;;;3.35;1.25;;;17.10;69.00;;;;;;5026382;28;20594;-79
2023/03/19 11:01:05;;;;;;;5.10;2.10;;;17.30;69.60;;;;;;5028800;28;20029;-79
2023/03/19 11:03:38;;;;;;;3.60;2.03;;;17.50;68.40;;;;;;4994616;28;20616;-80
2023/03/19 11:06:19;;;;;;;1.85;1.33;;;17.80;67.90;;;;;;5003406;28;20048;-79
2023/03/19 11:09:13;;;;;;;5.80;1.70;;;18.10;67.20;;;;;;5032482;28;20547;-79
2023/03/19 11:11:48;;;;;;;3.70;1.40;;;18.30;65.80;;;;;;5015227;28;20037;-79
2023/03/19 11:14:15;;;;;;;4.72;1.25;;;18.40;65.80;;;;;;4997977;28;20025;-80
2023/03/19 11:17:04;;;;;;;2.15;1.20;;;18.40;65.40;;;;;;5011502;28;20029;-79
2023/03/19 11:19:31;;;;;;;2.80;1.40;;;18.50;63.90;;;;;;5002064;28;20037;-80
2023/03/19 11:22:06;;;;;;;2.40;1.20;;;18.50;64.40;;;;;;4996035;28;20044;-78
2023/03/19 11:24:32;;;;;;;3.03;1.83;;;18.60;63.70;;;;;;5042046;28;20480;-79
2023/03/19 11:26:59;;;;;;;2.88;1.08;;;18.60;63.40;;;;;;5029279;28;20048;-79
2023/03/19 11:29:26;;;;;;;2.55;2.05;;;18.70;63.00;;;;;;5015438;28;20926;-80
2023/03/19 11:32:01;;;;;;;4.30;1.50;;;18.80;62.80;;;;;;5001362;28;20052;-79
2023/03/19 11:34:41;;;;;;;1.10;1.00;;;19.00;62.30;;;;;;5033250;28;20659;-79
2023/03/19 11:37:19;;;;;;;3.47;1.67;;;19.10;61.20;;;;;;5031559;28;20053;-78
2023/03/19 11:40:09;;;;;;;2.33;1.50;;;19.00;60.80;;;;;;5015156;28;20073;-79
2023/03/19 11:42:50;;;;;;;4.65;2.10;;;19.10;61.00;;;;;;5023197;28;20095;-78
2023/03/19 11:45:50;;;;;;;8.05;2.40;;;19.10;61.10;;;;;;5038953;28;20087;-79
2023/03/19 11:48:26;;;;;;;3.67;1.63;;;19.10;59.60;;;;;;5037291;28;20127;-78
2023/03/19 11:51:14;;;;;;;2.75;1.40;;;19.10;60.40;;;;;;5032122;28;20703;-77
2023/03/19 11:54:01;;;;;;;2.42;1.42;;;19.10;59.70;;;;;;5019215;28;20044;-78
2023/03/19 11:56:32;;;;;;;4.57;1.60;;;19.00;59.00;;;;;;5022686;28;20063;-80
2023/03/19 11:59:28;;;;;;;1.93;1.40;;;19.10;59.70;;;;;;5016003;28;20044;-78
2023/03/19 12:02:20;;;;;;;3.80;1.20;;;19.10;59.00;;;;;;5050194;28;20075;-79
2023/03/19 12:05:19;;;;;;;2.58;1.05;;;19.10;58.80;;;;;;5015594;28;20051;-79
2023/03/19 12:08:10;;;;;;;1.23;1.00;;;19.20;58.30;;;;;;5017220;28;20504;-78
2023/03/19 12:10:51;;;;;;;3.78;1.33;;;19.30;58.50;;;;;;5024786;28;20251;-78
2023/03/19 12:13:26;;;;;;;2.38;1.00;;;19.60;58.40;;;;;;5040162;28;20044;-79
2023/03/19 12:16:09;;;;;;;2.42;0.93;;;19.80;58.00;;;;;;5024177;28;20125;-77
2023/03/19 12:18:58;;;;;;;1.70;0.80;;;20.10;57.70;;;;;;5036013;28;20731;-78
2023/03/19 12:21:53;;;;;;;1.83;1.20;;;20.30;57.70;;;;;;5001458;28;20044;-80
2023/03/19 12:24:31;;;;;;;1.95;1.38;;;20.50;57.70;;;;;;5028293;28;20511;-78
2023/03/19 12:27:13;;;;;;;1.88;1.10;;;20.80;57.20;;;;;;5041944;28;20507;-78
2023/03/19 12:29:52;;;;;;;1.58;1.15;;;21.10;56.10;;;;;;5021885;28;20048;-76
2023/03/19 12:32:25;;;;;;;3.50;1.08;;;21.10;56.40;;;;;;5012059;28;20037;-79
2023/03/19 12:34:57;;;;;;;4.30;1.38;;;21.10;55.60;;;;;;4989604;28;20067;-77
2023/03/19 12:37:41;;;;;;;3.03;1.10;;;21.10;55.70;;;;;;4999644;28;20056;-80
2023/03/19 12:40:15;;;;;;;2.47;1.20;;;21.00;55.10;;;;;;4996193;28;20037;-77
2023/03/19 12:42:40;;;;;;;2.47;1.20;;;20.90;54.70;;;;;;5011739;28;20080;-80
2023/03/19 12:45:32;;;;;;;2.63;0.88;;;20.90;55.00;;;;;;4994079;28;20041;-77
2023/03/19 12:48:20;;;;;;;1.67;0.80;;;20.90;54.20;;;;;;5028320;28;20041;-77
2023/03/19 12:50:49;;;;;;;2.22;1.10;;;21.00;53.80;;;;;;5029741;28;20045;-78
2023/03/19 12:53:28;;;;;;;1.83;0.90;;;21.00;54.60;;;;;;4989358;28;20053;-79
2023/03/19 12:55:56;;;;;;;2.25;1.30;;;21.00;54.10;;;;;;4995878;28;20049;-76
2023/03/19 12:58:41;;;;;;;1.65;1.08;;;21.10;54.70;;;;;;5027250;28;20038;-79
2023/03/19 13:01:11;;;;;;;1.60;1.00;;;21.10;54.80;;;;;;4994861;28;20096;-79